sensor_id;sensor_type;location;lat;lon;timestamp;pressure;altitude;pressure_sealevel;temperature;humidity
77517;BME280;68414;53.946;27.634;2023-07-30T00:00:33;98369.445312;;;16.580000;70.972656
77517;BME280;68414;53.946;27.634;2023-07-30T00:01:32;98369.062500;;;16.490000;71.178711
77517;BME280;68414;53.946;27.634;2023-07-30T00:02:32;98368.265625;;;16.520000;71.117188
77517;BME280;68414;53.946;27.634;2023-07-30T00:03:32;98371.453125;;;16.469999;71.197266
77517;BME280;68414;53.946;27.634;2023-07-30T00:04:32;98367.109375;;;16.430000;71.431641
77517;BME280;68414;53.946;27.634;2023-07-30T00:05:32;98369.906250;;;16.360001;71.946289
77517;BME280;68414;53.946;27.634;2023-07-30T00:06:32;98363.609375;;;16.280001;72.065430
77517;BME280;68414;53.946;27.634;2023-07-30T00:07:34;98362.859375;;;16.170000;72.190430
77517;BME280;68414;53.946;27.634;2023-07-30T00:08:32;98360.546875;;;15.980000;73.025391
77517;BME280;68414;53.946;27.634;2023-07-30T00:09:32;98362.562500;;;15.870000;73.697266
77517;BME280;68414;53.946;27.634;2023-07-30T00:10:32;98363.750000;;;15.790000;73.715820
77517;BME280;68414;53.946;27.634;2023-07-30T00:11:32;98360.609375;;;15.730000;74.047852
77517;BME280;68414;53.946;27.634;2023-07-30T00:12:32;98355.054688;;;15.660000;74.232422
77517;BME280;68414;53.946;27.634;2023-07-30T00:13:32;98361.015625;;;15.650000;74.732422
77517;BME280;68414;53.946;27.634;2023-07-30T00:14:33;98358.203125;;;15.820000;74.225586
77517;BME280;68414;53.946;27.634;2023-07-30T00:15:32;98358.562500;;;15.950000;73.458984
77517;BME280;68414;53.946;27.634;2023-07-30T00:16:32;98366.062500;;;16.049999;72.773438
77517;BME280;68414;53.946;27.634;2023-07-30T00:17:32;98358.500000;;;16.129999;72.895508
77517;BME280;68414;53.946;27.634;2023-07-30T00:18:32;98355.718750;;;16.129999;72.511719
77517;BME280;68414;53.946;27.634;2023-07-30T00:19:32;98359.687500;;;16.150000;72.450195
77517;BME280;68414;53.946;27.634;2023-07-30T00:21:32;98366.000000;;;16.230000;72.157227
77517;BME280;68414;53.946;27.634;2023-07-30T00:22:32;98366.765625;;;16.270000;72.217773
77517;BME280;68414;53.946;27.634;2023-07-30T00:23:32;98369.187500;;;16.209999;72.316406
77517;BME280;68414;53.946;27.634;2023-07-30T00:24:32;98373.203125;;;16.030001;72.680664
77517;BME280;68414;53.946;27.634;2023-07-30T00:25:32;98373.250000;;;15.920000;73.606445
77517;BME280;68414;53.946;27.634;2023-07-30T00:26:32;98366.492188;;;16.000000;73.225586
77517;BME280;68414;53.946;27.634;2023-07-30T00:27:32;98371.617188;;;16.049999;72.992188
77517;BME280;68414;53.946;27.634;2023-07-30T00:28:32;98363.265625;;;16.120001;72.730469
77517;BME280;68414;53.946;27.634;2023-07-30T00:29:32;98364.453125;;;16.150000;72.898438
77517;BME280;68414;53.946;27.634;2023-07-30T00:30:32;98359.250000;;;16.200001;72.580078
77517;BME280;68414;53.946;27.634;2023-07-30T00:31:32;98360.843750;;;16.209999;72.733398
77517;BME280;68414;53.946;27.634;2023-07-30T00:32:32;98356.476562;;;16.240000;72.442383
77517;BME280;68414;53.946;27.634;2023-07-30T00:33:32;98366.000000;;;16.260000;72.370117
77517;BME280;68414;53.946;27.634;2023-07-30T00:34:32;98362.031250;;;16.240000;72.584961
77517;BME280;68414;53.946;27.634;2023-07-30T00:35:32;98361.625000;;;16.250000;72.434570
77517;BME280;68414;53.946;27.634;2023-07-30T00:36:32;98368.367188;;;16.280001;71.901367
77517;BME280;68414;53.946;27.634;2023-07-30T00:37:32;98360.796875;;;16.320000;71.699219
77517;BME280;68414;53.946;27.634;2023-07-30T00:38:32;98368.343750;;;16.309999;71.620117
77517;BME280;68414;53.946;27.634;2023-07-30T00:39:32;98362.812500;;;16.280001;71.769531
77517;BME280;68414;53.946;27.634;2023-07-30T00:40:32;98362.007812;;;16.270000;71.921875
77517;BME280;68414;53.946;27.634;2023-07-30T00:41:32;98364.789062;;;16.270000;71.899414
77517;BME280;68414;53.946;27.634;2023-07-30T00:42:32;98355.265625;;;16.250000;71.951172
77517;BME280;68414;53.946;27.634;2023-07-30T00:43:32;98367.179688;;;16.250000;71.929688
77517;BME280;68414;53.946;27.634;2023-07-30T00:44:32;98360.437500;;;16.230000;71.794922
77517;BME280;68414;53.946;27.634;2023-07-30T00:45:32;98358.046875;;;16.280001;71.670898
77517;BME280;68414;53.946;27.634;2023-07-30T00:46:32;98355.656250;;;16.299999;71.103516
77517;BME280;68414;53.946;27.634;2023-07-30T00:47:32;98356.421875;;;16.309999;71.160156
77517;BME280;68414;53.946;27.634;2023-07-30T00:48:32;98350.531250;;;16.180000;71.798828
77517;BME280;68414;53.946;27.634;2023-07-30T00:49:32;98354.484375;;;16.209999;71.877930
77517;BME280;68414;53.946;27.634;2023-07-30T00:50:34;98358.867188;;;16.219999;71.682617
77517;BME280;68414;53.946;27.634;2023-07-30T00:51:33;98356.882812;;;16.190001;71.820312
77517;BME280;68414;53.946;27.634;2023-07-30T00:52:32;98356.906250;;;16.150000;72.472656
77517;BME280;68414;53.946;27.634;2023-07-30T00:53:32;98355.312500;;;16.139999;72.437500
77517;BME280;68414;53.946;27.634;2023-07-30T00:54:32;98360.875000;;;16.139999;72.229492
77517;BME280;68414;53.946;27.634;2023-07-30T00:55:32;98360.070312;;;16.139999;72.361328
77517;BME280;68414;53.946;27.634;2023-07-30T00:56:39;98360.453125;;;16.160000;72.232422
77517;BME280;68414;53.946;27.634;2023-07-30T00:57:32;98367.203125;;;16.180000;71.831055
77517;BME280;68414;53.946;27.634;2023-07-30T00:58:32;98356.085938;;;16.180000;71.666992
77517;BME280;68414;53.946;27.634;2023-07-30T00:59:33;98358.453125;;;16.230000;
77517;BME280;68414;53.946;27.634;2023-07-30T01:00:32;98361.234375;;;16.230000;71.400391
77517;BME280;68414;53.946;27.634;2023-07-30T01:01:33;98363.671875;;;16.110001;71.916016
77517;BME280;68414;53.946;27.634;2023-07-30T01:02:32;98361.281250;;;16.129999;71.996094
77517;BME280;68414;53.946;27.634;2023-07-30T01:03:32;98363.265625;;;16.120001;72.073242
77517;BME280;68414;53.946;27.634;2023-07-30T01:04:32;98360.507812;;;16.090000;71.781250
77517;BME280;68414;53.946;27.634;2023-07-30T01:05:33;98358.109375;;;16.070000;72.052734
77517;BME280;68414;53.946;27.634;2023-07-30T01:06:32;98368.023438;;;16.120001;72.060547
77517;BME280;68414;53.946;27.634;2023-07-30T01:07:32;98359.687500;;;16.150000;72.033203
77517;BME280;68414;53.946;27.634;2023-07-30T01:08:32;98359.304688;;;16.129999;72.118164
77517;BME280;68414;53.946;27.634;2023-07-30T01:09:33;98363.687500;;;16.040001;72.037109
77517;BME280;68414;53.946;27.634;2023-07-30T01:10:32;98364.531250;;;15.930000;72.393555
77517;BME280;68414;53.946;27.634;2023-07-30T01:11:32;98364.515625;;;15.900000;72.814453
77517;BME280;68414;53.946;27.634;2023-07-30T01:12:32;98366.125000;;;15.840000;73.011719
77517;BME280;68414;53.946;27.634;2023-07-30T01:13:33;98367.328125;;;15.790000;72.819336
77517;BME280;68414;53.946;27.634;2023-07-30T01:14:32;98361.765625;;;15.860000;72.567383
77517;BME280;68414;53.946;27.634;2023-07-30T01:15:32;98355.781250;;;15.950000;72.122070
77517;BME280;68414;53.946;27.634;2023-07-30T01:16:32;98358.953125;;;15.970000;72.136719
77517;BME280;68414;53.946;27.634;2023-07-30T01:17:32;98352.578125;;;16.040001;71.927734
77517;BME280;68414;53.946;27.634;2023-07-30T01:18:32;98351.757812;;;16.100000;71.586914
77517;BME280;68414;53.946;27.634;2023-07-30T01:19:32;98358.093750;;;16.139999;71.516602
77517;BME280;68414;53.946;27.634;2023-07-30T01:20:32;98353.687500;;;16.200001;71.307617
77517;BME280;68414;53.946;27.634;2023-07-30T01:22:32;98355.265625;;;16.250000;71.084961
77517;BME280;68414;53.946;27.634;2023-07-30T01:23:32;98348.523438;;;16.260000;71.051758
77517;BME280;68414;53.946;27.634;2023-07-30T01:24:32;98347.718750;;;16.250000;70.953125
77517;BME280;68414;53.946;27.634;2023-07-30T01:25:33;98354.078125;;;16.219999;71.299805
77517;BME280;68414;53.946;27.634;2023-07-30T01:27:33;98352.507812;;;16.180000;70.864258
77517;BME280;68414;53.946;27.634;2023-07-30T01:28:33;98354.898438;;;16.160000;70.642578
77517;BME280;68414;53.946;27.634;2023-07-30T01:30:36;98350.164062;;;16.129999;70.987305
77517;BME280;68414;53.946;27.634;2023-07-30T01:31:32;98347.812500;;;16.010000;71.395508
77517;BME280;68414;53.946;27.634;2023-07-30T01:32:32;98343.906250;;;15.840000;72.463867
77517;BME280;68414;53.946;27.634;2023-07-30T01:33:32;98347.546875;;;15.630000;72.616211
77517;BME280;68414;53.946;27.634;2023-07-30T01:34:34;98347.140625;;;15.510000;73.374023
77517;BME280;68414;53.946;27.634;2023-07-30T01:35:32;98341.203125;;;15.420000;73.697266
77517;BME280;68414;53.946;27.634;2023-07-30T01:36:32;98352.304688;;;15.350000;73.717773
77517;BME280;68414;53.946;27.634;2023-07-30T01:37:32;98358.281250;;;15.440000;73.722656
77517;BME280;68414;53.946;27.634;2023-07-30T01:38:32;98351.125000;;;15.570000;73.296875
77517;BME280;68414;53.946;27.634;2023-07-30T01:39:32;98346.742188;;;15.630000;72.419922
77517;BME280;68414;53.946;27.634;2023-07-30T01:40:32;98354.671875;;;15.640000;72.696289
77517;BME280;68414;53.946;27.634;2023-07-30T01:41:32;98353.453125;;;15.720000;72.423828
77517;BME280;68414;53.946;27.634;2023-07-30T01:42:32;98352.640625;;;15.790000;71.733398
77517;BME280;68414;53.946;27.634;2023-07-30T01:43:32;98348.656250;;;15.830000;71.795898
77517;BME280;68414;53.946;27.634;2023-07-30T01:44:32;98351.828125;;;15.850000;71.591797
77517;BME280;68414;53.946;27.634;2023-07-30T01:45:32;98357.382812;;;15.850000;71.799805
77517;BME280;68414;53.946;27.634;2023-07-30T01:46:32;98357.421875;;;15.750000;72.143555
77517;BME280;68414;53.946;27.634;2023-07-30T01:47:32;98363.789062;;;15.720000;72.520508
77517;BME280;68414;53.946;27.634;2023-07-30T01:48:32;98355.484375;;;15.540000;72.766602
77517;BME280;68414;53.946;27.634;2023-07-30T01:49:32;98358.640625;;;15.530000;73.563477
77517;BME280;68414;53.946;27.634;2023-07-30T01:50:32;98355.078125;;;15.630000;72.934570
77517;BME280;68414;53.946;27.634;2023-07-30T01:51:32;98360.218750;;;15.640000;72.925781
77517;BME280;68414;53.946;27.634;2023-07-30T01:52:32;98359.000000;;;15.720000;72.873047
77517;BME280;68414;53.946;27.634;2023-07-30T01:53:32;98368.125000;;;15.800000;72.578125
77517;BME280;68414;53.946;27.634;2023-07-30T01:54:32;98357.429688;;;15.780000;72.719727
77517;BME280;68414;53.946;27.634;2023-07-30T01:55:32;98362.210938;;;15.670000;72.753906
77517;BME280;68414;53.946;27.634;2023-07-30T01:56:32;98356.265625;;;15.650000;72.838867
77517;BME280;68414;53.946;27.634;2023-07-30T01:57:32;98352.687500;;;15.650000;72.324219
77517;BME280;68414;53.946;27.634;2023-07-30T01:58:34;98356.640625;;;15.710000;72.499023
77517;BME280;68414;53.946;27.634;2023-07-30T01:59:32;98359.023438;;;15.690000;72.112305
77517;BME280;68414;53.946;27.634;2023-07-30T02:00:32;98352.687500;;;15.650000;72.542969
77517;BME280;68414;53.946;27.634;2023-07-30T02:01:32;98353.453125;;;15.720000;72.281250
77517;BME280;68414;53.946;27.634;2023-07-30T02:02:32;98355.031250;;;15.770000;72.168945
77517;BME280;68414;53.946;27.634;2023-07-30T02:03:32;98342.734375;;;15.740000;71.956055
77517;BME280;68414;53.946;27.634;2023-07-30T02:04:32;98351.484375;;;15.760000;71.980469
77517;BME280;68414;53.946;27.634;2023-07-30T02:05:32;98355.046875;;;15.730000;72.208008
77517;BME280;68414;53.946;27.634;2023-07-30T02:06:32;98357.843750;;;15.700000;71.948242
77517;BME280;68414;53.946;27.634;2023-07-30T02:07:32;98348.312500;;;15.640000;72.388672
77517;BME280;68414;53.946;27.634;2023-07-30T02:08:32;98358.640625;;;15.530000;73.048828
77517;BME280;68414;53.946;27.634;2023-07-30T02:09:32;98354.687500;;;15.470000;73.236328
77517;BME280;68414;53.946;27.634;2023-07-30T02:10:32;98363.406250;;;15.420000;73.379883
77517;BME280;68414;53.946;27.634;2023-07-30T02:11:32;98365.781250;;;15.260000;73.561523
77517;BME280;68414;53.946;27.634;2023-07-30T02:12:32;98366.203125;;;15.130000;74.514648
77517;BME280;68414;53.946;27.634;2023-07-30T02:13:32;98358.250000;;;15.010000;74.866211
77517;BME280;68414;53.946;27.634;2023-07-30T02:14:33;98361.414062;;;14.930000;75.179688
77517;BME280;68414;53.946;27.634;2023-07-30T02:15:32;98367.750000;;;14.860000;75.703125
77517;BME280;68414;53.946;27.634;2023-07-30T02:16:32;98363.804688;;;14.980000;76.028320
77517;BME280;68414;53.946;27.634;2023-07-30T02:17:32;98364.578125;;;14.950000;75.466797
77517;BME280;68414;53.946;27.634;2023-07-30T02:18:32;98370.929688;;;14.950000;75.848633
77517;BME280;68414;53.946;27.634;2023-07-30T02:19:32;98363.789062;;;14.910000;75.733398
77517;BME280;68414;53.946;27.634;2023-07-30T02:20:32;98366.171875;;;14.890000;76.057617
77517;BME280;68414;53.946;27.634;2023-07-30T02:21:32;98372.921875;;;14.980000;75.931641
77517;BME280;68414;53.946;27.634;2023-07-30T02:22:32;98369.367188;;;15.050000;75.844727
77517;BME280;68414;53.946;27.634;2023-07-30T02:23:32;98372.531250;;;15.170000;75.222656
77517;BME280;68414;53.946;27.634;2023-07-30T02:24:32;98369.757812;;;15.280000;74.704102
77517;BME280;68414;53.946;27.634;2023-07-30T02:25:32;98363.390625;;;15.380000;74.229492
77517;BME280;68414;53.946;27.634;2023-07-30T02:26:32;98366.203125;;;15.450000;73.999023
77517;BME280;68414;53.946;27.634;2023-07-30T02:27:32;98362.218750;;;15.530000;73.584961
77517;BME280;68414;53.946;27.634;2023-07-30T02:28:32;98362.234375;;;15.570000;72.892578
77517;BME280;68414;53.946;27.634;2023-07-30T02:29:32;98361.023438;;;15.580000;72.815430
77517;BME280;68414;53.946;27.634;2023-07-30T02:30:33;98366.187500;;;15.560000;73.108398
77517;BME280;68414;53.946;27.634;2023-07-30T02:31:32;98361.843750;;;15.550000;73.283203
77517;BME280;68414;53.946;27.634;2023-07-30T02:32:32;98358.265625;;;15.540000;73.369141
77517;BME280;68414;53.946;27.634;2023-07-30T02:33:32;98357.078125;;;15.520000;73.441406
77517;BME280;68414;53.946;27.634;2023-07-30T02:34:32;98355.484375;;;15.540000;73.161133
77517;BME280;68414;53.946;27.634;2023-07-30T02:35:32;98361.843750;;;15.550000;73.272461
77517;BME280;68414;53.946;27.634;2023-07-30T02:36:32;98361.039062;;;15.610000;72.986328
77517;BME280;68414;53.946;27.634;2023-07-30T02:37:32;98363.015625;;;15.610000;72.963867
77517;BME280;68414;53.946;27.634;2023-07-30T02:38:34;98360.632812;;;15.560000;73.261719
77517;BME280;68414;53.946;27.634;2023-07-30T02:39:32;98359.421875;;;15.640000;72.760742
77517;BME280;68414;53.946;27.634;2023-07-30T02:40:32;98359.828125;;;15.690000;72.780273
77517;BME280;68414;53.946;27.634;2023-07-30T02:41:32;98361.015625;;;15.720000;72.137695
77517;BME280;68414;53.946;27.634;2023-07-30T02:42:32;98363.359375;;;15.770000;71.894531
77517;BME280;68414;53.946;27.634;2023-07-30T02:43:32;98367.328125;;;15.790000;71.920898
77517;BME280;68414;53.946;27.634;2023-07-30T02:44:32;98362.578125;;;15.800000;71.668945
77517;BME280;68414;53.946;27.634;2023-07-30T02:45:34;98366.921875;;;15.810000;71.747070
77517;BME280;68414;53.946;27.634;2023-07-30T02:46:32;98366.921875;;;15.810000;71.681641
77517;BME280;68414;53.946;27.634;2023-07-30T02:47:32;98365.328125;;;15.830000;71.806641
77517;BME280;68414;53.946;27.634;2023-07-30T02:48:32;98367.734375;;;15.850000;71.864258
77517;BME280;68414;53.946;27.634;2023-07-30T02:49:32;98370.078125;;;15.900000;71.576172
77517;BME280;68414;53.946;27.634;2023-07-30T02:50:32;98366.507812;;;15.930000;71.394531
77517;BME280;68414;53.946;27.634;2023-07-30T02:51:34;98368.898438;;;15.910000;71.446289
77517;BME280;68414;53.946;27.634;2023-07-30T02:52:32;98363.734375;;;15.930000;71.382812
77517;BME280;68414;53.946;27.634;2023-07-30T02:53:32;98359.734375;;;15.940000;71.351562
77517;BME280;68414;53.946;27.634;2023-07-30T02:54:32;98361.742188;;;15.900000;71.806641
77517;BME280;68414;53.946;27.634;2023-07-30T02:55:34;98362.156250;;;15.880000;72.011719
77517;BME280;68414;53.946;27.634;2023-07-30T02:56:32;98360.953125;;;15.930000;71.547852
77517;BME280;68414;53.946;27.634;2023-07-30T02:57:32;98360.929688;;;15.970000;71.235352
77517;BME280;68414;53.946;27.634;2023-07-30T02:58:32;98359.359375;;;15.960000;71.354492
77517;BME280;68414;53.946;27.634;2023-07-30T02:59:32;98362.140625;;;15.960000;
77517;BME280;68414;53.946;27.634;2023-07-30T03:00:32;98363.718750;;;16.000000;71.329102
77517;BME280;68414;53.946;27.634;2023-07-30T03:01:32;98360.523438;;;16.020000;71.255859
77517;BME280;68414;53.946;27.634;2023-07-30T03:02:32;98364.484375;;;16.010000;71.230469
77517;BME280;68414;53.946;27.634;2023-07-30T03:03:32;98364.101562;;;16.020000;71.211914
77517;BME280;68414;53.946;27.634;2023-07-30T03:04:32;98362.531250;;;15.980000;71.654297
77517;BME280;68414;53.946;27.634;2023-07-30T03:05:32;98361.710938;;;16.040001;71.380859
77517;BME280;68414;53.946;27.634;2023-07-30T03:06:32;98354.937500;;;16.049999;71.458008
77517;BME280;68414;53.946;27.634;2023-07-30T03:07:32;98357.312500;;;16.100000;71.368164
77517;BME280;68414;53.946;27.634;2023-07-30T03:08:32;98360.484375;;;16.120001;71.327148
77517;BME280;68414;53.946;27.634;2023-07-30T03:09:32;98350.937500;;;16.170000;71.179688
77517;BME280;68414;53.946;27.634;2023-07-30T03:10:32;98355.703125;;;16.200001;70.724609
77517;BME280;68414;53.946;27.634;2023-07-30T03:11:32;98354.484375;;;16.209999;70.825195
77517;BME280;68414;53.946;27.634;2023-07-30T03:12:32;98352.898438;;;16.230000;70.774414
77517;BME280;68414;53.946;27.634;2023-07-30T03:13:32;98351.710938;;;16.209999;70.978516
77517;BME280;68414;53.946;27.634;2023-07-30T03:14:32;98346.531250;;;16.230000;71.367188
77517;BME280;68414;53.946;27.634;2023-07-30T03:15:32;98350.906250;;;16.200001;70.967773
77517;BME280;68414;53.946;27.634;2023-07-30T03:16:32;98345.351562;;;16.200001;71.351562
77517;BME280;68414;53.946;27.634;2023-07-30T03:17:32;98348.140625;;;16.240000;71.213867
77517;BME280;68414;53.946;27.634;2023-07-30T03:18:32;98348.109375;;;16.270000;71.318359
77517;BME280;68414;53.946;27.634;2023-07-30T03:19:32;98350.093750;;;16.299999;71.212891
77517;BME280;68414;53.946;27.634;2023-07-30T03:20:32;98342.937500;;;16.290001;71.112305
77517;BME280;68414;53.946;27.634;2023-07-30T03:21:32;98344.531250;;;16.299999;71.333984
77517;BME280;68414;53.946;27.634;2023-07-30T03:22:32;98347.695312;;;16.320000;71.239258
77517;BME280;68414;53.946;27.634;2023-07-30T03:23:32;98345.296875;;;16.340000;71.549805
77517;BME280;68414;53.946;27.634;2023-07-30T03:24:32;98340.093750;;;16.400000;70.887695
77517;BME280;68414;53.946;27.634;2023-07-30T03:25:32;98345.656250;;;16.400000;70.843750
77517;BME280;68414;53.946;27.634;2023-07-30T03:26:32;98346.843750;;;16.420000;70.980469
77517;BME280;68414;53.946;27.634;2023-07-30T03:27:32;98344.859375;;;16.430000;71.047852
77517;BME280;68414;53.946;27.634;2023-07-30T03:28:32;98337.703125;;;16.450001;70.787109
77517;BME280;68414;53.946;27.634;2023-07-30T03:29:32;98339.648438;;;16.480000;70.826172
77517;BME280;68414;53.946;27.634;2023-07-30T03:30:32;98343.640625;;;16.540001;70.692383
77517;BME280;68414;53.946;27.634;2023-07-30T03:31:32;98344.093750;;;16.389999;71.381836
77517;BME280;68414;53.946;27.634;2023-07-30T03:32:32;98338.500000;;;16.420000;71.529297
77517;BME280;68414;53.946;27.634;2023-07-30T03:33:32;98342.468750;;;16.520000;71.500000
77517;BME280;68414;53.946;27.634;2023-07-30T03:34:32;98337.250000;;;16.610001;70.988281
77517;BME280;68414;53.946;27.634;2023-07-30T03:35:32;98337.984375;;;16.680000;70.461914
77517;BME280;68414;53.946;27.634;2023-07-30T03:36:32;98339.578125;;;16.700001;70.431641
77517;BME280;68414;53.946;27.634;2023-07-30T03:37:32;98336.726562;;;16.770000;70.497070
77517;BME280;68414;53.946;27.634;2023-07-30T03:38:32;98335.117188;;;16.830000;70.396484
77517;BME280;68414;53.946;27.634;2023-07-30T03:39:32;98333.484375;;;16.850000;70.268555
77517;BME280;68414;53.946;27.634;2023-07-30T03:40:32;98336.265625;;;16.889999;69.769531
77517;BME280;68414;53.946;27.634;2023-07-30T03:41:34;98334.234375;;;16.930000;69.863281
77517;BME280;68414;53.946;27.634;2023-07-30T03:42:32;98335.046875;;;16.900000;70.243164
77517;BME280;68414;53.946;27.634;2023-07-30T03:43:33;98335.039062;;;16.930000;69.985352
77517;BME280;68414;53.946;27.634;2023-07-30T03:44:32;98334.203125;;;16.959999;70.022461
77517;BME280;68414;53.946;27.634;2023-07-30T03:45:34;98324.625000;;;17.010000;69.931641
77517;BME280;68414;53.946;27.634;2023-07-30T03:46:32;98331.406250;;;17.000000;69.369141
77517;BME280;68414;53.946;27.634;2023-07-30T03:47:32;98326.601562;;;17.040001;69.594727
77517;BME280;68414;53.946;27.634;2023-07-30T03:48:32;98331.750000;;;17.049999;69.343750
77517;BME280;68414;53.946;27.634;2023-07-30T03:49:32;98326.984375;;;17.059999;69.795898
77517;BME280;68414;53.946;27.634;2023-07-30T03:50:32;98331.796875;;;17.020000;70.053711
77517;BME280;68414;53.946;27.634;2023-07-30T03:51:32;98328.929688;;;17.090000;69.933594
77517;BME280;68414;53.946;27.634;2023-07-30T03:52:32;98324.203125;;;17.059999;70.433594
77517;BME280;68414;53.946;27.634;2023-07-30T03:53:32;98326.937500;;;17.090000;70.098633
77517;BME280;68414;53.946;27.634;2023-07-30T03:54:32;98322.929688;;;17.139999;69.655273
77517;BME280;68414;53.946;27.634;2023-07-30T03:55:32;98325.671875;;;17.170000;69.241211
77517;BME280;68414;53.946;27.634;2023-07-30T03:56:32;98323.671875;;;17.209999;69.094727
77517;BME280;68414;53.946;27.634;2023-07-30T03:57:32;98326.835938;;;17.230000;69.031250
77517;BME280;68414;53.946;27.634;2023-07-30T03:58:32;98328.015625;;;17.260000;68.958984
77517;BME280;68414;53.946;27.634;2023-07-30T03:59:32;98326.000000;;;17.260000;68.892578
77517;BME280;68414;53.946;27.634;2023-07-30T04:00:32;98323.203125;;;17.299999;68.887695
77517;BME280;68414;53.946;27.634;2023-07-30T04:01:32;98323.953125;;;17.340000;68.805664
77517;BME280;68414;53.946;27.634;2023-07-30T04:02:32;98325.515625;;;17.350000;68.961914
77517;BME280;68414;53.946;27.634;2023-07-30T04:03:32;98321.500000;;;17.389999;68.881836
77517;BME280;68414;53.946;27.634;2023-07-30T04:04:32;98320.328125;;;17.370001;69.261719
77517;BME280;68414;53.946;27.634;2023-07-30T04:05:32;98319.890625;;;17.420000;68.906250
77517;BME280;68414;53.946;27.634;2023-07-30T04:06:32;98315.875000;;;17.469999;68.770508
77517;BME280;68414;53.946;27.634;2023-07-30T04:07:32;98326.187500;;;17.530001;68.736328
77517;BME280;68414;53.946;27.634;2023-07-30T04:08:32;98322.156250;;;17.580000;68.589844
77517;BME280;68414;53.946;27.634;2023-07-30T04:09:32;98319.328125;;;17.610001;68.639648
77517;BME280;68414;53.946;27.634;2023-07-30T04:10:32;98316.914062;;;17.629999;68.751953
77517;BME280;68414;53.946;27.634;2023-07-30T04:11:32;98322.468750;;;17.670000;68.712891
77517;BME280;68414;53.946;27.634;2023-07-30T04:12:32;98317.640625;;;17.709999;68.333984
77517;BME280;68414;53.946;27.634;2023-07-30T04:13:32;98320.750000;;;17.760000;67.704102
77517;BME280;68414;53.946;27.634;2023-07-30T04:14:32;98320.734375;;;17.799999;68.205078
77517;BME280;68414;53.946;27.634;2023-07-30T04:15:32;98320.257812;;;17.850000;68.344727
77517;BME280;68414;53.946;27.634;2023-07-30T04:16:32;98309.859375;;;17.889999;67.988281
77517;BME280;68414;53.946;27.634;2023-07-30T04:17:33;98305.054688;;;17.930000;68.048828
77517;BME280;68414;53.946;27.634;2023-07-30T04:18:32;98316.890625;;;18.000000;67.585938
77517;BME280;68414;53.946;27.634;2023-07-30T04:19:32;98310.445312;;;18.070000;67.707031
77517;BME280;68414;53.946;27.634;2023-07-30T04:20:32;98303.617188;;;18.110001;67.172852
77517;BME280;68414;53.946;27.634;2023-07-30T04:21:32;98306.859375;;;18.059999;67.682617
77517;BME280;68414;53.946;27.634;2023-07-30T04:22:32;98306.406250;;;18.110001;67.889648
77517;BME280;68414;53.946;27.634;2023-07-30T04:23:32;98311.984375;;;18.110001;67.118164
77517;BME280;68414;53.946;27.634;2023-07-30T04:24:32;98304.070312;;;18.059999;67.186523
77517;BME280;68414;53.946;27.634;2023-07-30T04:25:32;98312.781250;;;18.120001;67.426758
77517;BME280;68414;53.946;27.634;2023-07-30T04:26:32;98307.000000;;;18.260000;67.494141
77517;BME280;68414;53.946;27.634;2023-07-30T04:27:32;98312.812500;;;18.389999;66.661133
77517;BME280;68414;53.946;27.634;2023-07-30T04:28:32;98309.929688;;;18.490000;66.125977
77517;BME280;68414;53.946;27.634;2023-07-30T04:29:32;98306.617188;;;18.580000;65.220703
77517;BME280;68414;53.946;27.634;2023-07-30T04:30:32;98314.859375;;;18.650000;65.331055
77517;BME280;68414;53.946;27.634;2023-07-30T04:31:32;98311.976562;;;18.719999;65.716797
77517;BME280;68414;53.946;27.634;2023-07-30T04:32:32;98314.664062;;;18.790001;66.114258
77517;BME280;68414;53.946;27.634;2023-07-30T04:33:32;98320.515625;;;18.879999;65.463867
77517;BME280;68414;53.946;27.634;2023-07-30T04:34:32;98316.460938;;;18.930000;65.769531